Time;durP1;ratioP1;P1;durP2;ratioP2;P2;SDS_P1;SDS_P2;PMS_P1;PMS_P2;Temp;Humidity;BMP_temperature;BMP_pressure;BME280_temperature;BME280_humidity;BME280_pressure;Samples;Min_cycle;Max_cycle;Signal;HPM_P1;HPM_P2
2022/12/07 00:01:25;;;;;;;6.78;1.25;;;33.50;43.90;;;;;;5009705;28;20026;-67
2022/12/07 00:03:57;;;;;;;5.97;1.42;;;33.20;44.30;;;;;;5009804;28;20044;-68
2022/12/07 00:06:24;;;;;;;3.42;1.15;;;32.90;43.80;;;;;;5010042;28;20537;-68
2022/12/07 00:08:51;;;;;;;6.07;1.10;;;32.60;43.20;;;;;;5007942;28;20037;-68
2022/12/07 00:11:21;;;;;;;3.75;1.20;;;32.20;43.60;;;;;;5007835;28;20054;-68
2022/12/07 00:13:54;;;;;;;7.47;2.03;;;31.80;44.50;;;;;;5009712;28;20025;-68
2022/12/07 00:16:23;;;;;;;5.13;1.42;;;31.50;46.10;;;;;;5009003;28;20046;-67
2022/12/07 00:18:50;;;;;;;4.63;1.27;;;31.40;47.00;;;;;;5007561;28;20034;-68
2022/12/07 00:21:19;;;;;;;4.53;1.33;;;31.40;47.10;;;;;;5004510;28;20036;-68
2022/12/07 00:23:48;;;;;;;5.93;0.93;;;31.40;47.50;;;;;;5006610;28;20172;-68
2022/12/07 00:26:19;;;;;;;1.75;0.70;;;31.30;46.30;;;;;;5004671;28;20034;-69
2022/12/07 00:28:54;;;;;;;7.22;1.08;;;31.00;46.10;;;;;;5004137;28;20022;-68
2022/12/07 00:31:24;;;;;;;6.20;1.25;;;30.90;47.30;;;;;;5007104;28;20026;-68
2022/12/07 00:33:52;;;;;;;3.00;1.02;;;31.00;45.60;;;;;;5005338;28;20029;-66
2022/12/07 00:36:22;;;;;;;7.50;0.93;;;31.20;46.90;;;;;;5009326;28;20112;-67
2022/12/07 00:38:49;;;;;;;7.15;1.77;;;31.10;46.90;;;;;;5009087;28;20429;-68
2022/12/07 00:41:19;;;;;;;7.57;1.25;;;31.20;47.20;;;;;;5026565;28;20038;-70
2022/12/07 00:43:47;;;;;;;2.90;0.82;;;31.30;44.80;;;;;;5016157;28;20034;-68
2022/12/07 00:46:16;;;;;;;4.05;1.00;;;31.50;44.60;;;;;;5006829;28;20017;-68
2022/12/07 00:48:43;;;;;;;8.18;1.27;;;31.30;46.60;;;;;;5009576;28;20052;-67
2022/12/07 00:51:16;;;;;;;4.57;1.55;;;31.30;44.70;;;;;;5009455;28;20022;-68
2022/12/07 00:53:44;;;;;;;5.37;1.30;;;31.30;46.10;;;;;;5007298;28;20030;-68
2022/12/07 00:56:16;;;;;;;4.00;1.05;;;31.60;45.10;;;;;;5007844;28;20026;-68
2022/12/07 00:58:44;;;;;;;2.75;1.08;;;31.60;43.50;;;;;;5004177;28;20023;-69
2022/12/07 01:01:12;;;;;;;10.38;1.10;;;31.70;44.90;;;;;;5009621;28;20601;-69
2022/12/07 01:03:39;;;;;;;5.85;1.20;;;31.80;46.30;;;;;;5010108;28;20030;-69
2022/12/07 01:06:06;;;;;;;5.85;1.20;;;31.80;46.30;;;;;;5015186;28;20037;-67
2022/12/07 01:08:34;;;;;;;7.05;1.35;;;31.90;45.20;;;;;;5007361;28;20105;-67
2022/12/07 01:11:08;;;;;;;4.35;1.05;;;31.70;44.40;;;;;;5009063;28;20026;-68
2022/12/07 01:13:36;;;;;;;3.92;0.90;;;31.50;43.30;;;;;;5012011;28;20041;-68
2022/12/07 01:16:06;;;;;;;8.77;3.53;;;31.70;44.10;;;;;;5011257;28;20053;-67
2022/12/07 01:18:36;;;;;;;4.65;0.82;;;32.00;43.20;;;;;;5012668;28;20022;-68
2022/12/07 01:21:06;;;;;;;9.00;1.17;;;32.10;44.60;;;;;;5012315;28;20378;-68
2022/12/07 01:23:35;;;;;;;6.75;1.13;;;32.20;42.10;;;;;;5011483;28;20128;-68
2022/12/07 01:26:05;;;;;;;6.60;0.88;;;32.40;44.60;;;;;;5009222;28;20673;-68
2022/12/07 01:28:33;;;;;;;6.43;1.73;;;32.60;44.60;;;;;;5006955;28;20061;-68
2022/12/07 01:31:03;;;;;;;2.88;1.00;;;32.40;44.30;;;;;;5009537;28;20399;-68
2022/12/07 01:33:33;;;;;;;8.55;1.90;;;32.20;44.00;;;;;;5007996;28;20372;-68
2022/12/07 01:36:08;;;;;;;2.88;1.00;;;32.10;45.40;;;;;;5011543;28;20395;-67
2022/12/07 01:38:35;;;;;;;5.80;2.05;;;32.30;45.70;;;;;;5012675;28;20036;-67
2022/12/07 01:41:03;;;;;;;3.40;1.33;;;32.20;43.00;;;;;;5014738;28;20060;-67
2022/12/07 01:43:32;;;;;;;4.40;1.48;;;32.10;43.80;;;;;;5010713;28;20065;-70
2022/12/07 01:46:01;;;;;;;4.28;1.48;;;32.20;43.90;;;;;;5012484;28;20022;-70
2022/12/07 01:48:41;;;;;;;5.93;2.45;;;31.90;44.10;;;;;;5021445;28;20079;-70
2022/12/07 01:51:14;;;;;;;5.38;1.67;;;31.90;44.50;;;;;;5018472;28;20030;-71
2022/12/07 01:53:45;;;;;;;4.88;1.23;;;31.80;45.70;;;;;;5014964;28;20038;-71
2022/12/07 01:56:24;;;;;;;6.88;1.10;;;31.60;44.40;;;;;;5012247;28;20025;-70
2022/12/07 01:58:52;;;;;;;6.03;1.20;;;31.20;43.30;;;;;;5010231;28;20112;-70
2022/12/07 02:01:19;;;;;;;3.88;0.90;;;31.10;43.40;;;;;;5013781;28;20104;-70
2022/12/07 02:03:47;;;;;;;6.28;0.90;;;31.10;45.80;;;;;;5016683;28;20045;-71
2022/12/07 02:06:19;;;;;;;7.55;1.00;;;31.10;45.50;;;;;;5014569;28;20609;-70
2022/12/07 02:08:47;;;;;;;3.83;0.93;;;31.30;46.70;;;;;;5013263;28;20026;-71
2022/12/07 02:11:15;;;;;;;5.95;0.93;;;31.30;44.10;;;;;;5018813;28;20426;-69
2022/12/07 02:13:44;;;;;;;5.68;1.48;;;31.50;45.10;;;;;;5024448;28;20025;-69
2022/12/07 02:16:26;;;;;;;4.28;1.08;;;31.50;45.10;;;;;;5013513;28;20466;-71
2022/12/07 02:19:15;;;;;;;7.68;0.80;;;31.30;43.20;;;;;;5011470;28;20045;-69
2022/12/07 02:21:59;;;;;;;3.05;0.65;;;31.40;42.10;;;;;;5010081;28;20418;-68
2022/12/07 02:25:13;;;;;;;3.67;0.70;;;31.30;43.10;;;;;;5017762;28;20399;-70
2022/12/07 02:27:46;;;;;;;3.22;1.15;;;31.20;43.40;;;;;;4972800;28;20075;-70
2022/12/07 02:30:14;;;;;;;2.60;0.68;;;31.00;44.40;;;;;;5025680;28;20018;-69
2022/12/07 02:33:28;;;;;;;1.05;0.55;;;30.80;41.90;;;;;;5009339;28;20104;-70
2022/12/07 02:36:03;;;;;;;1.67;0.50;;;30.60;40.70;;;;;;4984548;28;20041;-70
2022/12/07 02:38:39;;;;;;;7.43;0.77;;;30.40;41.30;;;;;;5015202;28;20040;-70
2022/12/07 02:41:16;;;;;;;3.67;0.88;;;30.30;40.20;;;;;;5011854;28;20030;-69
2022/12/07 02:43:55;;;;;;;2.45;0.63;;;30.10;40.30;;;;;;5013548;28;20030;-70
2022/12/07 02:46:28;;;;;;;2.63;0.80;;;29.80;39.50;;;;;;5011628;28;20395;-68
2022/12/07 02:48:56;;;;;;;5.85;0.68;;;29.80;40.70;;;;;;5009271;28;20018;-69
2022/12/07 02:51:23;;;;;;;8.35;0.60;;;29.60;39.40;;;;;;5015786;28;20034;-70
2022/12/07 02:53:51;;;;;;;3.97;0.40;;;29.50;39.00;;;;;;5015962;28;20022;-69
2022/12/07 02:56:36;;;;;;;2.47;0.35;;;29.40;38.50;;;;;;5012257;28;20079;-70
2022/12/07 02:59:33;;;;;;;6.07;0.68;;;29.30;37.30;;;;;;5012077;28;20026;-69
2022/12/07 03:02:03;;;;;;;7.13;1.00;;;29.20;38.70;;;;;;5009054;28;20033;-68
2022/12/07 03:04:41;;;;;;;3.30;0.63;;;28.90;37.70;;;;;;5009951;28;20117;-70
2022/12/07 03:07:44;;;;;;;2.53;0.68;;;28.70;37.00;;;;;;5016968;28;20017;-69
2022/12/07 03:10:36;;;;;;;5.82;0.60;;;28.70;38.10;;;;;;5000825;28;20372;-69
2022/12/07 03:13:21;;;;;;;5.50;0.57;;;28.70;39.20;;;;;;5005759;28;20054;-70
2022/12/07 03:15:57;;;;;;;3.58;0.77;;;28.90;40.50;;;;;;5018795;28;20424;-70
2022/12/07 03:18:28;;;;;;;2.13;0.40;;;28.90;39.00;;;;;;5012561;28;20502;-70
2022/12/07 03:21:01;;;;;;;4.13;0.57;;;28.80;39.00;;;;;;5004391;28;20513;-70
2022/12/07 03:23:31;;;;;;;3.78;0.77;;;28.80;39.30;;;;;;5008333;28;20433;-70
2022/12/07 03:26:01;;;;;;;2.65;0.50;;;28.70;37.30;;;;;;5023362;28;20540;-69
2022/12/07 03:28:35;;;;;;;6.80;0.65;;;28.60;35.80;;;;;;5012397;28;20025;-69
2022/12/07 03:31:26;;;;;;;2.08;0.63;;;28.50;35.00;;;;;;5009663;28;20029;-69
2022/12/07 03:34:04;;;;;;;3.03;0.57;;;28.30;34.70;;;;;;5009094;28;20101;-69
2022/12/07 03:36:44;;;;;;;2.85;0.52;;;28.20;35.70;;;;;;5010815;28;20025;-69
2022/12/07 03:39:27;;;;;;;1.42;0.30;;;28.10;34.10;;;;;;5012346;28;20525;-70
2022/12/07 03:41:57;;;;;;;0.88;0.30;;;28.00;34.90;;;;;;5010368;28;20439;-69
2022/12/07 03:44:25;;;;;;;9.18;0.50;;;27.90;34.80;;;;;;5008552;28;20380;-69
2022/12/07 03:46:58;;;;;;;5.40;0.47;;;28.00;35.00;;;;;;5008706;28;20041;-69
2022/12/07 03:49:30;;;;;;;1.30;0.38;;;28.00;35.10;;;;;;5013273;28;20487;-68
2022/12/07 03:52:13;;;;;;;4.93;0.85;;;28.00;34.50;;;;;;5011005;28;20025;-68
2022/12/07 03:54:49;;;;;;;5.35;0.57;;;27.90;34.30;;;;;;5006253;28;20022;-69
2022/12/07 03:57:17;;;;;;;1.83;0.43;;;27.70;33.20;;;;;;5000575;28;20025;-72
2022/12/07 03:59:45;;;;;;;1.83;0.65;;;27.50;33.30;;;;;;5010908;28;20037;-69
2022/12/07 04:02:14;;;;;;;5.47;0.70;;;27.40;34.00;;;;;;5009214;28;20057;-71
2022/12/07 04:04:43;;;;;;;1.00;0.40;;;27.20;33.90;;;;;;5010614;28;21823;-69
2022/12/07 04:07:10;;;;;;;2.80;0.57;;;27.10;33.00;;;;;;5005435;28;20434;-69
2022/12/07 04:09:38;;;;;;;1.25;0.50;;;27.00;34.20;;;;;;5012442;28;20510;-69
2022/12/07 04:12:05;;;;;;;1.10;0.50;;;26.90;34.00;;;;;;5022596;28;20033;-70
2022/12/07 04:14:32;;;;;;;1.40;0.50;;;26.90;33.70;;;;;;5009221;28;20035;-68
2022/12/07 04:17:00;;;;;;;1.80;0.38;;;26.80;34.30;;;;;;5011021;28;20026;-68
2022/12/07 04:19:33;;;;;;;1.63;0.40;;;26.70;34.00;;;;;;5009486;28;20029;-68
2022/12/07 04:22:02;;;;;;;4.60;0.63;;;26.70;34.90;;;;;;5007455;28;20092;-68
2022/12/07 04:24:30;;;;;;;2.67;0.60;;;26.70;35.00;;;;;;5016649;28;20029;-70
2022/12/07 04:26:57;;;;;;;2.28;0.40;;;26.70;36.40;;;;;;5016008;28;20087;-69
2022/12/07 04:29:24;;;;;;;3.28;0.88;;;26.70;36.60;;;;;;5022732;28;20429;-69
2022/12/07 04:31:52;;;;;;;1.48;0.55;;;26.60;36.70;;;;;;5019727;28;20029;-68
2022/12/07 04:34:20;;;;;;;2.53;0.82;;;26.70;37.00;;;;;;5016786;28;20050;-68
2022/12/07 04:36:48;;;;;;;3.72;0.77;;;26.70;36.90;;;;;;5014524;28;20500;-68
2022/12/07 04:39:34;;;;;;;2.60;0.50;;;26.70;37.50;;;;;;5009017;28;20057;-68
2022/12/07 04:42:02;;;;;;;2.50;0.77;;;26.60;36.90;;;;;;5005700;28;20025;-69
2022/12/07 04:44:30;;;;;;;4.03;0.57;;;26.60;37.40;;;;;;5014353;28;20036;-69
2022/12/07 04:46:58;;;;;;;2.03;0.60;;;26.50;38.10;;;;;;5019654;28;20034;-70
2022/12/07 04:49:26;;;;;;;2.17;0.52;;;26.50;38.10;;;;;;5010831;28;20566;-70
2022/12/07 04:51:53;;;;;;;2.90;0.60;;;26.50;38.60;;;;;;5013449;28;20022;-68
2022/12/07 04:54:21;;;;;;;5.15;0.60;;;26.50;38.00;;;;;;5012835;28;20022;-69
2022/12/07 04:56:48;;;;;;;2.67;0.60;;;26.40;38.50;;;;;;5006805;28;20045;-68
2022/12/07 04:59:17;;;;;;;7.47;0.60;;;26.50;38.70;;;;;;5014417;28;20022;-69
2022/12/07 05:01:44;;;;;;;2.22;0.50;;;26.50;39.90;;;;;;5012679;28;20430;-68
2022/12/07 05:04:12;;;;;;;2.67;0.60;;;26.50;38.40;;;;;;5012334;28;20487;-68
2022/12/07 05:06:39;;;;;;;6.38;0.57;;;26.50;38.10;;;;;;5009413;28;20037;-69
2022/12/07 05:09:06;;;;;;;3.92;1.08;;;26.50;38.40;;;;;;5010819;28;20117;-68
2022/12/07 05:11:40;;;;;;;2.35;0.68;;;26.40;38.10;;;;;;5012007;28;20379;-69
2022/12/07 05:14:12;;;;;;;2.85;0.45;;;26.30;38.10;;;;;;5006103;28;20030;-68
2022/12/07 05:16:41;;;;;;;3.70;0.50;;;26.20;37.90;;;;;;5016035;28;20041;-68
2022/12/07 05:19:09;;;;;;;6.95;0.60;;;26.10;39.00;;;;;;5008412;28;20053;-69
2022/12/07 05:21:37;;;;;;;1.33;0.57;;;26.00;37.70;;;;;;5010872;28;20030;-69
2022/12/07 05:24:05;;;;;;;4.82;0.52;;;25.90;37.90;;;;;;5010811;28;20037;-69
2022/12/07 05:26:33;;;;;;;2.55;0.60;;;25.70;38.40;;;;;;5000159;28;20084;-68
2022/12/07 05:29:00;;;;;;;7.07;0.55;;;25.60;39.30;;;;;;5010100;28;20029;-68
2022/12/07 05:31:28;;;;;;;10.93;0.70;;;25.50;39.20;;;;;;5010868;28;20049;-69
2022/12/07 05:33:55;;;;;;;2.85;0.90;;;25.50;39.80;;;;;;5014818;28;20052;-68
2022/12/07 05:36:23;;;;;;;3.65;0.85;;;25.40;39.90;;;;;;5025419;28;20045;-68
2022/12/07 05:38:50;;;;;;;4.10;0.82;;;25.40;41.50;;;;;;5022344;28;20018;-69
2022/12/07 05:44:05;;;;;;;3.45;1.05;;;25.20;40.50;;;;;;5012112;28;20036;-69
2022/12/07 05:46:33;;;;;;;4.15;0.80;;;25.10;41.30;;;;;;5005488;28;20053;-69
2022/12/07 05:49:00;;;;;;;4.05;0.77;;;25.00;42.20;;;;;;5008628;28;20026;-68
2022/12/07 05:51:27;;;;;;;4.80;1.35;;;25.00;43.30;;;;;;5013217;28;20045;-69
2022/12/07 05:53:57;;;;;;;3.83;0.70;;;25.00;43.10;;;;;;5009558;28;20080;-68
2022/12/07 05:56:26;;;;;;;5.25;0.68;;;24.90;43.30;;;;;;5011103;28;20368;-69
2022/12/07 06:01:39;;;;;;;2.72;0.60;;;24.90;44.30;;;;;;5008835;28;20505;-69
2022/12/07 06:04:07;;;;;;;5.80;1.17;;;24.90;44.20;;;;;;5010468;28;20044;-69
2022/12/07 06:06:34;;;;;;;5.55;0.85;;;24.80;45.00;;;;;;4996150;28;20026;-69
2022/12/07 06:09:01;;;;;;;2.15;1.15;;;24.80;45.20;;;;;;5001848;28;20518;-68
2022/12/07 06:14:14;;;;;;;3.38;0.80;;;24.70;46.50;;;;;;5006922;28;20121;-68
2022/12/07 06:16:42;;;;;;;1.75;0.70;;;24.60;47.10;;;;;;5020025;28;20041;-68
2022/12/07 06:19:10;;;;;;;5.00;1.00;;;24.50;48.30;;;;;;5006199;28;20022;-69
2022/12/07 06:21:37;;;;;;;2.50;0.88;;;24.50;48.70;;;;;;5017664;28;20030;-69
2022/12/07 06:24:04;;;;;;;1.38;0.57;;;24.40;49.50;;;;;;5015924;28;20112;-69
2022/12/07 06:26:31;;;;;;;11.10;0.68;;;24.30;50.10;;;;;;5014752;28;20032;-68
2022/12/07 06:28:59;;;;;;;2.28;0.60;;;24.30;50.20;;;;;;5010514;28;20127;-66
2022/12/07 06:31:26;;;;;;;5.85;0.90;;;24.20;50.20;;;;;;5007482;28;20029;-68
2022/12/07 06:34:01;;;;;;;4.03;0.90;;;24.30;51.50;;;;;;5008119;28;20045;-67
2022/12/07 06:36:29;;;;;;;1.63;0.80;;;24.30;51.50;;;;;;5016391;28;20408;-68
2022/12/07 06:38:57;;;;;;;4.72;0.80;;;24.30;51.80;;;;;;5016925;28;20506;-67
2022/12/07 06:41:24;;;;;;;2.05;0.60;;;24.30;52.50;;;;;;5011971;28;20418;-64
2022/12/07 06:43:52;;;;;;;3.72;1.30;;;24.30;52.80;;;;;;5004431;28;20038;-68
2022/12/07 06:46:19;;;;;;;4.07;0.60;;;24.20;53.30;;;;;;5002358;28;20037;-67
2022/12/07 06:48:47;;;;;;;1.55;0.52;;;24.10;53.80;;;;;;5009054;28;20061;-68
2022/12/07 06:51:14;;;;;;;5.30;0.60;;;24.00;54.40;;;;;;5007601;28;20691;-67
2022/12/07 06:53:41;;;;;;;2.63;0.60;;;24.00;54.70;;;;;;5005782;28;20128;-66
2022/12/07 06:56:09;;;;;;;2.25;0.57;;;23.90;55.30;;;;;;5013511;28;20025;-66
2022/12/07 06:58:36;;;;;;;4.10;0.70;;;23.90;55.70;;;;;;5006491;28;20044;-68
2022/12/07 07:01:08;;;;;;;2.28;0.40;;;23.90;57.00;;;;;;5007022;28;20399;-65
2022/12/07 07:03:35;;;;;;;1.95;0.65;;;23.80;56.60;;;;;;5004652;28;20030;-69
2022/12/07 07:06:03;;;;;;;1.27;0.50;;;23.80;56.30;;;;;;5022334;28;20044;-68
2022/12/07 07:08:30;;;;;;;2.33;0.70;;;23.70;56.80;;;;;;5006267;28;20022;-69
2022/12/07 07:10:58;;;;;;;2.15;0.30;;;23.60;57.50;;;;;;5018550;28;20061;-68
2022/12/07 07:13:25;;;;;;;3.88;0.45;;;23.60;56.90;;;;;;5007546;28;20056;-69
2022/12/07 07:15:52;;;;;;;1.58;0.60;;;23.50;57.00;;;;;;5019336;28;20246;-69
2022/12/07 07:18:19;;;;;;;4.68;0.63;;;23.50;57.60;;;;;;5010656;28;20026;-68
2022/12/07 07:20:46;;;;;;;5.13;0.80;;;23.50;57.60;;;;;;5001802;28;20376;-68
2022/12/07 07:23:14;;;;;;;1.35;0.50;;;23.40;57.40;;;;;;5006384;28;20030;-70
2022/12/07 07:25:41;;;;;;;2.60;0.50;;;23.30;57.50;;;;;;5007360;28;20638;-68
2022/12/07 07:28:08;;;;;;;4.40;1.15;;;23.30;57.60;;;;;;5002135;28;20025;-69
2022/12/07 07:30:35;;;;;;;1.65;0.70;;;23.20;58.20;;;;;;5002536;28;20025;-68
2022/12/07 07:33:03;;;;;;;1.00;0.65;;;23.20;58.10;;;;;;5005378;28;20120;-68
2022/12/07 07:35:33;;;;;;;3.22;1.17;;;23.10;58.40;;;;;;5011082;28;20052;-67
2022/12/07 07:38:00;;;;;;;1.75;0.50;;;23.10;58.90;;;;;;4995569;28;20437;-68
2022/12/07 07:40:31;;;;;;;2.08;0.60;;;23.10;58.80;;;;;;5001473;28;20034;-68
2022/12/07 07:42:58;;;;;;;1.40;0.65;;;23.00;59.10;;;;;;5002935;28;20451;-68
2022/12/07 07:45:27;;;;;;;2.42;0.45;;;23.00;59.20;;;;;;5000791;28;20092;-68
2022/12/07 07:47:54;;;;;;;4.90;0.90;;;22.90;59.70;;;;;;5001359;28;20030;-68
2022/12/07 07:50:22;;;;;;;4.18;0.60;;;22.90;59.90;;;;;;5001871;28;20030;-67
2022/12/07 07:52:49;;;;;;;3.08;0.40;;;22.80;60.00;;;;;;5006492;28;20026;-68
2022/12/07 07:55:16;;;;;;;1.25;0.60;;;22.80;61.00;;;;;;5000712;28;20030;-68
2022/12/07 07:57:43;;;;;;;1.67;0.60;;;22.70;60.50;;;;;;5001302;28;20120;-68
2022/12/07 08:00:15;;;;;;;2.00;0.65;;;22.70;60.80;;;;;;5001816;28;20116;-68
2022/12/07 08:02:43;;;;;;;2.88;0.57;;;22.70;60.90;;;;;;5014199;28;20622;-68
2022/12/07 08:05:12;;;;;;;1.25;0.50;;;22.60;61.20;;;;;;4998683;28;20371;-68
2022/12/07 08:07:40;;;;;;;0.93;0.50;;;22.60;61.60;;;;;;4998414;28;20019;-68
2022/12/07 08:10:10;;;;;;;4.20;0.57;;;22.50;62.20;;;;;;4998589;28;20058;-69
2022/12/07 08:13:10;;;;;;;1.27;0.70;;;22.50;62.60;;;;;;5001851;28;20496;-68
2022/12/07 08:15:27;;;;;;;1.30;0.40;;;22.50;62.10;;;;;;5002477;28;20033;-69
2022/12/07 08:17:55;;;;;;;1.83;0.60;;;22.40;62.60;;;;;;5001656;28;20034;-67
2022/12/07 08:20:22;;;;;;;0.82;0.45;;;22.40;63.10;;;;;;5003059;28;20022;-68
2022/12/07 08:22:49;;;;;;;2.38;0.60;;;22.30;63.20;;;;;;5002999;28;20026;-68
2022/12/07 08:25:17;;;;;;;3.28;0.70;;;22.30;63.10;;;;;;5005127;28;20069;-68
2022/12/07 08:27:44;;;;;;;1.27;0.98;;;22.20;63.40;;;;;;5004662;28;20073;-69
2022/12/07 08:30:12;;;;;;;1.73;0.50;;;22.20;64.00;;;;;;5003614;28;20414;-68
2022/12/07 08:32:39;;;;;;;4.85;0.50;;;22.10;64.30;;;;;;5002424;28;20526;-68
2022/12/07 08:35:08;;;;;;;1.05;0.50;;;22.10;64.30;;;;;;5001669;28;20200;-69
2022/12/07 08:37:35;;;;;;;1.98;0.80;;;22.10;64.50;;;;;;5004552;28;20391;-66
2022/12/07 08:40:03;;;;;;;2.17;0.60;;;22.00;64.70;;;;;;5001186;28;20131;-67
2022/12/07 08:42:37;;;;;;;2.40;0.70;;;22.00;65.20;;;;;;5002498;28;20380;-69
2022/12/07 08:45:10;;;;;;;2.05;0.60;;;21.90;65.30;;;;;;5001938;28;20041;-68
2022/12/07 08:48:06;;;;;;;1.77;0.60;;;21.80;65.40;;;;;;5003771;28;20027;-68
2022/12/07 08:50:34;;;;;;;1.80;0.60;;;21.80;65.60;;;;;;5012310;28;20436;-69
2022/12/07 08:53:02;;;;;;;3.38;1.15;;;21.70;66.10;;;;;;5009943;28;20658;-69
2022/12/07 08:55:30;;;;;;;1.73;0.50;;;21.70;66.90;;;;;;5012121;28;20033;-69
2022/12/07 08:57:59;;;;;;;0.90;0.65;;;21.60;67.00;;;;;;5009531;28;20022;-69
2022/12/07 09:00:27;;;;;;;4.00;0.68;;;21.60;67.50;;;;;;4998951;28;20034;-68
2022/12/07 09:02:54;;;;;;;2.63;0.45;;;21.60;67.20;;;;;;5004882;28;20033;-69
2022/12/07 09:05:22;;;;;;;1.27;0.60;;;21.50;68.10;;;;;;5005530;28;20129;-68
2022/12/07 09:07:55;;;;;;;1.35;0.50;;;21.50;68.20;;;;;;5008502;28;20042;-68
2022/12/07 09:10:23;;;;;;;1.50;0.57;;;21.40;68.60;;;;;;5019023;28;20017;-68
2022/12/07 09:12:50;;;;;;;1.38;0.75;;;21.40;68.40;;;;;;5025146;28;20486;-69
2022/12/07 09:15:17;;;;;;;2.47;0.60;;;21.30;68.90;;;;;;5001537;28;20069;-68
2022/12/07 09:17:45;;;;;;;1.77;0.75;;;21.30;69.70;;;;;;5021928;28;20032;-68
2022/12/07 09:20:12;;;;;;;1.63;0.80;;;21.30;70.10;;;;;;5013530;28;20057;-67
2022/12/07 09:22:39;;;;;;;2.70;0.70;;;21.20;69.40;;;;;;5010842;28;20108;-68
2022/12/07 09:25:07;;;;;;;2.58;1.00;;;21.20;70.20;;;;;;5012699;28;20041;-68
2022/12/07 09:27:34;;;;;;;1.48;0.85;;;21.20;70.10;;;;;;5022067;28;20033;-69
2022/12/07 09:30:02;;;;;;;1.75;0.70;;;21.10;70.30;;;;;;5009215;28;20031;-69
2022/12/07 09:32:30;;;;;;;1.48;0.70;;;21.10;71.50;;;;;;5009033;28;20027;-69
2022/12/07 09:34:57;;;;;;;2.13;0.90;;;21.10;71.80;;;;;;4999787;28;20447;-69
2022/12/07 09:37:24;;;;;;;1.80;0.70;;;21.00;72.50;;;;;;5024037;28;20550;-69
2022/12/07 09:39:51;;;;;;;2.22;0.55;;;21.00;72.90;;;;;;5027091;28;20108;-69
2022/12/07 09:42:25;;;;;;;1.58;0.52;;;20.90;72.50;;;;;;5006180;28;20022;-69
2022/12/07 09:44:52;;;;;;;2.40;1.00;;;20.80;73.90;;;;;;5008048;28;20379;-69
2022/12/07 09:47:19;;;;;;;1.85;1.10;;;20.80;74.10;;;;;;5007004;28;20387;-69
2022/12/07 09:49:47;;;;;;;2.55;0.88;;;20.80;73.60;;;;;;5009652;28;20029;-69
2022/12/07 09:52:25;;;;;;;3.90;1.20;;;20.80;74.20;;;;;;5021733;28;20025;-70
2022/12/07 09:54:53;;;;;;;2.90;0.77;;;20.80;74.20;;;;;;5005164;28;20391;-69
2022/12/07 09:57:31;;;;;;;3.08;1.30;;;20.70;74.80;;;;;;5008337;28;20018;-69
2022/12/07 10:00:04;;;;;;;3.22;0.88;;;20.70;74.90;;;;;;5003152;28;20057;-69
2022/12/07 10:02:38;;;;;;;3.47;0.77;;;20.70;76.10;;;;;;5009865;28;21122;-68
2022/12/07 10:05:08;;;;;;;3.10;0.70;;;20.70;75.70;;;;;;5007460;28;20033;-69
2022/12/07 10:07:35;;;;;;;3.92;0.80;;;20.70;74.90;;;;;;5024840;28;20033;-69
2022/12/07 10:10:06;;;;;;;2.35;1.00;;;20.60;75.20;;;;;;5013109;28;20759;-69
2022/12/07 10:13:04;;;;;;;2.53;0.85;;;20.60;76.60;;;;;;5020862;28;20028;-69
2022/12/07 10:15:56;;;;;;;3.10;0.95;;;20.60;76.10;;;;;;5015409;28;20018;-69
2022/12/07 10:18:28;;;;;;;1.65;0.82;;;20.60;77.50;;;;;;5008961;28;20029;-69
2022/12/07 10:21:23;;;;;;;2.22;1.00;;;20.50;78.00;;;;;;5017315;28;20134;-69
2022/12/07 10:24:19;;;;;;;2.55;1.48;;;20.50;78.80;;;;;;4999356;28;20077;-68
2022/12/07 10:26:51;;;;;;;2.88;0.93;;;20.40;78.20;;;;;;5010170;28;20380;-68
2022/12/07 10:29:37;;;;;;;1.35;0.88;;;20.50;77.70;;;;;;5020322;28;20391;-69
2022/12/07 10:32:26;;;;;;;4.47;1.00;;;20.50;78.40;;;;;;4993744;28;20754;-71
2022/12/07 10:35:22;;;;;;;3.08;1.67;;;20.50;77.70;;;;;;5010089;28;20133;-70
2022/12/07 10:37:50;;;;;;;1.83;0.80;;;20.50;77.40;;;;;;5024938;28;20025;-69
2022/12/07 10:40:30;;;;;;;2.38;0.77;;;20.50;77.60;;;;;;5014740;28;20030;-69
2022/12/07 10:43:12;;;;;;;1.30;0.90;;;20.40;77.80;;;;;;4998572;28;20077;-69
2022/12/07 10:45:51;;;;;;;1.63;0.80;;;20.30;77.80;;;;;;5025502;28;20040;-68
2022/12/07 10:48:33;;;;;;;1.95;0.95;;;20.20;78.50;;;;;;5014566;28;20026;-69
2022/12/07 10:51:25;;;;;;;2.53;0.82;;;20.20;79.90;;;;;;5016168;28;20038;-69
2022/12/07 10:54:14;;;;;;;1.50;0.52;;;20.10;79.30;;;;;;5008923;28;20030;-68
2022/12/07 10:56:54;;;;;;;1.45;0.77;;;20.00;79.90;;;;;;4999284;28;20507;-67
2022/12/07 10:59:34;;;;;;;1.25;0.60;;;19.90;80.60;;;;;;5010885;28;20030;-70
2022/12/07 11:02:48;;;;;;;1.20;0.45;;;19.90;80.90;;;;;;4996803;28;20034;-70
2022/12/07 11:05:45;;;;;;;3.03;0.65;;;19.80;81.00;;;;;;4999821;28;20092;-68
2022/12/07 11:08:29;;;;;;;1.45;0.60;;;19.70;81.20;;;;;;4993251;28;20438;-68
2022/12/07 11:11:17;;;;;;;2.38;0.80;;;19.70;81.70;;;;;;5018010;28;20021;-69
2022/12/07 11:14:05;;;;;;;2.33;0.90;;;19.60;82.50;;;;;;5011139;28;20026;-70
2022/12/07 11:16:50;;;;;;;2.97;0.80;;;19.60;83.00;;;;;;5016128;28;20025;-70
2022/12/07 11:19:41;;;;;;;3.10;1.02;;;19.50;82.90;;;;;;5015564;28;20550;-69
2022/12/07 11:22:45;;;;;;;1.42;0.60;;;19.50;83.50;;;;;;4998243;28;20018;-68
2022/12/07 11:25:27;;;;;;;1.35;0.82;;;19.40;83.90;;;;;;5017026;28;20049;-69
2022/12/07 11:28:14;;;;;;;2.65;0.70;;;19.40;84.10;;;;;;5011240;28;20030;-69
2022/12/07 11:31:13;;;;;;;2.45;0.77;;;19.30;84.60;;;;;;5018638;28;20018;-68
2022/12/07 11:34:00;;;;;;;4.25;0.90;;;19.30;84.50;;;;;;5021701;28;20029;-69
2022/12/07 11:36:48;;;;;;;0.90;0.60;;;19.30;85.20;;;;;;5014847;28;20065;-68
2022/12/07 11:39:52;;;;;;;2.95;0.90;;;19.30;85.00;;;;;;5013611;28;20068;-68
2022/12/07 11:42:42;;;;;;;2.90;0.50;;;19.30;84.60;;;;;;4993477;28;20050;-67
2022/12/07 11:45:29;;;;;;;2.60;1.35;;;19.40;83.70;;;;;;5019163;28;20418;-68
2022/12/07 11:48:24;;;;;;;2.35;1.38;;;19.40;83.10;;;;;;5023162;28;20080;-68
2022/12/07 11:50:59;;;;;;;2.30;0.77;;;19.50;82.50;;;;;;5000062;28;20034;-68
2022/12/07 11:53:52;;;;;;;2.85;0.80;;;19.50;82.00;;;;;;5008442;28;20064;-68
2022/12/07 11:56:26;;;;;;;1.20;0.55;;;19.50;82.20;;;;;;5010233;28;20041;-69
2022/12/07 11:59:26;;;;;;;1.90;0.70;;;19.50;82.30;;;;;;5001598;28;20076;-67
2022/12/07 12:01:59;;;;;;;3.85;0.77;;;19.50;82.50;;;;;;4984120;28;20042;-67
2022/12/07 12:04:51;;;;;;;4.65;0.70;;;19.40;81.60;;;;;;5005582;28;20053;-66
2022/12/07 12:07:25;;;;;;;2.20;0.90;;;19.40;81.20;;;;;;5004323;28;20030;-66
2022/12/07 12:10:02;;;;;;;1.80;1.30;;;19.30;81.80;;;;;;5003372;28;20678;-68
2022/12/07 12:12:32;;;;;;;2.42;0.85;;;19.20;82.00;;;;;;4999465;28;20037;-68
2022/12/07 12:15:25;;;;;;;1.33;0.50;;;19.20;82.50;;;;;;5006219;28;20025;-68
2022/12/07 12:17:55;;;;;;;1.48;0.60;;;19.10;82.60;;;;;;5007151;28;20487;-68
2022/12/07 12:20:28;;;;;;;1.40;0.82;;;19.00;82.90;;;;;;5013677;28;20033;-67
2022/12/07 12:23:30;;;;;;;3.40;0.98;;;18.90;83.50;;;;;;5014405;28;20021;-67
2022/12/07 12:26:04;;;;;;;2.72;0.98;;;18.80;83.00;;;;;;4987163;28;20080;-67
2022/12/07 12:28:54;;;;;;;3.42;0.80;;;18.80;83.20;;;;;;5016422;28;20064;-67
2022/12/07 12:31:21;;;;;;;2.03;0.80;;;18.70;84.30;;;;;;5005008;28;20026;-67
2022/12/07 12:33:50;;;;;;;3.15;1.20;;;18.60;85.00;;;;;;5011252;28;20032;-66
2022/12/07 12:36:17;;;;;;;3.65;0.90;;;18.60;85.80;;;;;;5006176;28;20049;-67
2022/12/07 12:38:53;;;;;;;1.58;0.70;;;18.60;85.50;;;;;;5014571;28;20049;-68
2022/12/07 12:42:05;;;;;;;2.85;0.90;;;18.50;86.70;;;;;;5007205;28;20501;-69
2022/12/07 12:44:32;;;;;;;2.22;1.20;;;18.50;86.70;;;;;;5003189;28;20565;-67
2022/12/07 12:47:04;;;;;;;3.28;0.93;;;18.50;87.70;;;;;;5015610;28;20030;-67
2022/12/07 12:49:40;;;;;;;2.00;1.27;;;18.50;87.50;;;;;;5003026;28;20063;-66
2022/12/07 12:52:28;;;;;;;2.50;0.60;;;18.50;87.80;;;;;;5010543;28;20072;-66
2022/12/07 12:55:10;;;;;;;2.10;0.70;;;18.50;88.80;;;;;;5006498;28;20030;-67
2022/12/07 12:57:38;;;;;;;1.35;0.60;;;18.50;88.50;;;;;;5009266;28;20578;-67
2022/12/07 13:00:18;;;;;;;2.20;0.80;;;18.50;88.30;;;;;;5006585;28;20127;-67
2022/12/07 13:02:58;;;;;;;1.80;0.68;;;18.60;87.80;;;;;;5017482;28;20038;-66
2022/12/07 13:05:32;;;;;;;1.25;0.60;;;18.60;88.40;;;;;;5019252;28;20133;-66
2022/12/07 13:08:01;;;;;;;2.55;0.60;;;18.80;87.60;;;;;;5003868;28;20029;-67
2022/12/07 13:10:34;;;;;;;0.85;0.47;;;18.80;88.10;;;;;;5019222;28;20026;-67
2022/12/07 13:13:18;;;;;;;1.33;0.60;;;18.90;88.60;;;;;;5012095;28;20461;-67
2022/12/07 13:15:53;;;;;;;1.85;0.57;;;19.00;88.20;;;;;;5012122;28;20097;-67
2022/12/07 13:18:32;;;;;;;1.10;0.88;;;19.00;87.70;;;;;;5017047;28;20034;-67
2022/12/07 13:21:05;;;;;;;2.72;0.73;;;19.00;88.10;;;;;;5011280;28;20522;-67
2022/12/07 13:23:44;;;;;;;0.57;0.40;;;19.00;88.10;;;;;;5010303;28;20582;-66
2022/12/07 13:26:32;;;;;;;1.85;0.65;;;19.00;88.60;;;;;;5015844;28;20056;-65